Terminal Aerodrome Forecast
Issued by NWS Memphis, TN

Home | Current Version | Previous Version | Text Only | Print | Product List | Glossary On
Versions: 1 2 3 4 5 6 7 8 9 10 11 12 13 14 15
000
FTUS44 KMEG 300500
TAFMKL
TAF
KMKL 300520Z 3006/0106 00000KT P6SM SKC
      TEMPO 3006/3010 2SM BR
     FM301000 00000KT 3SM BR SKC
      TEMPO 3010/3013 1/2SM FG
     FM301300 00000KT P6SM SKC
     FM301500 15003KT P6SM FEW040
     FM010000 00000KT P6SM SKC=

USA.gov is the U.S. government's official web portal to all federal, state and local government web resources and services.